sensor_id;sensor_type;location;lat;lon;timestamp;P1;durP1;ratioP1;P2;durP2;ratioP2
42244;SDS011;27912;51.828;5.688;2024-03-08T00:01:47;41.95;;;21.35;;
42244;SDS011;27912;51.828;5.688;2024-03-08T00:04:13;39.88;;;20.45;;
42244;SDS011;27912;51.828;5.688;2024-03-08T00:06:40;37.78;;;18.90;;
42244;SDS011;27912;51.828;5.688;2024-03-08T00:09:06;44.08;;;23.77;;
42244;SDS011;27912;51.828;5.688;2024-03-08T00:11:33;40.53;;;21.38;;
42244;SDS011;27912;51.828;5.688;2024-03-08T00:13:59;39.75;;;21.30;;
42244;SDS011;27912;51.828;5.688;2024-03-08T00:16:25;41.53;;;22.55;;
42244;SDS011;27912;51.828;5.688;2024-03-08T00:18:51;38.97;;;20.60;;
42244;SDS011;27912;51.828;5.688;2024-03-08T00:21:16;41.30;;;21.42;;
42244;SDS011;27912;51.828;5.688;2024-03-08T00:23:42;43.20;;;21.98;;
42244;SDS011;27912;51.828;5.688;2024-03-08T00:26:07;44.70;;;22.55;;
42244;SDS011;27912;51.828;5.688;2024-03-08T00:28:33;41.50;;;21.77;;
42244;SDS011;27912;51.828;5.688;2024-03-08T00:31:02;45.00;;;21.77;;
42244;SDS011;27912;51.828;5.688;2024-03-08T00:33:27;46.63;;;22.52;;
42244;SDS011;27912;51.828;5.688;2024-03-08T00:35:53;41.33;;;21.00;;
42244;SDS011;27912;51.828;5.688;2024-03-08T00:38:19;39.53;;;20.50;;
42244;SDS011;27912;51.828;5.688;2024-03-08T00:40:45;38.00;;;20.95;;
42244;SDS011;27912;51.828;5.688;2024-03-08T00:43:10;42.00;;;22.48;;
42244;SDS011;27912;51.828;5.688;2024-03-08T00:45:36;40.33;;;20.65;;
42244;SDS011;27912;51.828;5.688;2024-03-08T00:48:02;41.28;;;20.90;;
42244;SDS011;27912;51.828;5.688;2024-03-08T00:50:29;40.58;;;21.80;;
42244;SDS011;27912;51.828;5.688;2024-03-08T00:52:54;44.13;;;22.88;;
42244;SDS011;27912;51.828;5.688;2024-03-08T00:55:21;43.67;;;22.77;;
42244;SDS011;27912;51.828;5.688;2024-03-08T00:57:46;37.42;;;19.88;;
42244;SDS011;27912;51.828;5.688;2024-03-08T01:00:12;40.42;;;21.75;;
42244;SDS011;27912;51.828;5.688;2024-03-08T01:02:38;34.78;;;20.25;;
42244;SDS011;27912;51.828;5.688;2024-03-08T01:05:04;40.17;;;20.83;;
42244;SDS011;27912;51.828;5.688;2024-03-08T01:07:32;41.65;;;21.50;;
42244;SDS011;27912;51.828;5.688;2024-03-08T01:09:59;34.58;;;17.92;;
42244;SDS011;27912;51.828;5.688;2024-03-08T01:12:25;39.78;;;21.55;;
42244;SDS011;27912;51.828;5.688;2024-03-08T01:14:51;41.78;;;21.88;;
42244;SDS011;27912;51.828;5.688;2024-03-08T01:17:17;41.50;;;22.20;;
42244;SDS011;27912;51.828;5.688;2024-03-08T01:19:42;42.33;;;21.75;;
42244;SDS011;27912;51.828;5.688;2024-03-08T01:22:10;39.35;;;22.25;;
42244;SDS011;27912;51.828;5.688;2024-03-08T01:24:35;43.40;;;22.30;;
42244;SDS011;27912;51.828;5.688;2024-03-08T01:27:02;38.42;;;21.25;;
42244;SDS011;27912;51.828;5.688;2024-03-08T01:29:28;41.47;;;22.30;;
42244;SDS011;27912;51.828;5.688;2024-03-08T01:31:54;38.63;;;21.92;;
42244;SDS011;27912;51.828;5.688;2024-03-08T01:34:21;40.88;;;21.30;;
42244;SDS011;27912;51.828;5.688;2024-03-08T01:36:49;42.95;;;22.90;;
42244;SDS011;27912;51.828;5.688;2024-03-08T01:39:15;42.88;;;21.58;;
42244;SDS011;27912;51.828;5.688;2024-03-08T01:41:42;37.28;;;21.48;;
42244;SDS011;27912;51.828;5.688;2024-03-08T01:44:07;38.40;;;21.98;;
42244;SDS011;27912;51.828;5.688;2024-03-08T01:46:34;38.38;;;21.90;;
42244;SDS011;27912;51.828;5.688;2024-03-08T01:49:00;40.28;;;21.13;;
42244;SDS011;27912;51.828;5.688;2024-03-08T01:51:27;40.22;;;22.83;;
42244;SDS011;27912;51.828;5.688;2024-03-08T01:53:53;41.28;;;23.00;;
42244;SDS011;27912;51.828;5.688;2024-03-08T01:56:20;38.28;;;23.23;;
42244;SDS011;27912;51.828;5.688;2024-03-08T01:58:46;42.13;;;23.00;;
42244;SDS011;27912;51.828;5.688;2024-03-08T02:01:12;39.17;;;22.55;;
42244;SDS011;27912;51.828;5.688;2024-03-08T02:03:39;41.13;;;21.05;;
42244;SDS011;27912;51.828;5.688;2024-03-08T02:06:05;38.38;;;22.08;;
42244;SDS011;27912;51.828;5.688;2024-03-08T02:08:35;39.50;;;21.23;;
42244;SDS011;27912;51.828;5.688;2024-03-08T02:11:01;38.97;;;22.17;;
42244;SDS011;27912;51.828;5.688;2024-03-08T02:13:27;39.47;;;22.40;;
42244;SDS011;27912;51.828;5.688;2024-03-08T02:15:57;40.25;;;22.35;;
42244;SDS011;27912;51.828;5.688;2024-03-08T02:18:27;38.03;;;21.65;;
42244;SDS011;27912;51.828;5.688;2024-03-08T02:20:58;40.22;;;22.13;;
42244;SDS011;27912;51.828;5.688;2024-03-08T02:23:24;39.13;;;22.08;;
42244;SDS011;27912;51.828;5.688;2024-03-08T02:25:51;36.90;;;20.77;;
42244;SDS011;27912;51.828;5.688;2024-03-08T02:28:18;37.95;;;21.95;;
42244;SDS011;27912;51.828;5.688;2024-03-08T02:30:44;40.95;;;22.23;;
42244;SDS011;27912;51.828;5.688;2024-03-08T02:33:17;38.30;;;21.08;;
42244;SDS011;27912;51.828;5.688;2024-03-08T02:35:46;43.03;;;23.30;;
42244;SDS011;27912;51.828;5.688;2024-03-08T02:38:15;39.50;;;22.42;;
42244;SDS011;27912;51.828;5.688;2024-03-08T02:43:11;39.63;;;21.85;;
42244;SDS011;27912;51.828;5.688;2024-03-08T02:45:37;45.00;;;23.50;;
42244;SDS011;27912;51.828;5.688;2024-03-08T02:48:03;39.40;;;21.77;;
42244;SDS011;27912;51.828;5.688;2024-03-08T02:50:31;37.28;;;21.58;;
42244;SDS011;27912;51.828;5.688;2024-03-08T02:52:57;36.00;;;21.35;;
42244;SDS011;27912;51.828;5.688;2024-03-08T02:55:23;35.50;;;21.15;;
42244;SDS011;27912;51.828;5.688;2024-03-08T02:57:50;38.17;;;22.58;;
42244;SDS011;27912;51.828;5.688;2024-03-08T03:00:17;40.15;;;23.73;;
42244;SDS011;27912;51.828;5.688;2024-03-08T03:02:44;37.17;;;22.98;;
42244;SDS011;27912;51.828;5.688;2024-03-08T03:05:10;40.17;;;24.15;;
42244;SDS011;27912;51.828;5.688;2024-03-08T03:07:36;36.38;;;22.35;;
42244;SDS011;27912;51.828;5.688;2024-03-08T03:10:02;38.83;;;22.98;;
42244;SDS011;27912;51.828;5.688;2024-03-08T03:12:28;34.72;;;21.85;;
42244;SDS011;27912;51.828;5.688;2024-03-08T03:14:55;37.03;;;22.27;;
42244;SDS011;27912;51.828;5.688;2024-03-08T03:17:21;40.47;;;23.33;;
42244;SDS011;27912;51.828;5.688;2024-03-08T03:19:48;38.85;;;23.20;;
42244;SDS011;27912;51.828;5.688;2024-03-08T03:22:13;38.38;;;23.10;;
42244;SDS011;27912;51.828;5.688;2024-03-08T03:24:40;34.78;;;21.13;;
42244;SDS011;27912;51.828;5.688;2024-03-08T03:27:07;43.28;;;24.33;;
42244;SDS011;27912;51.828;5.688;2024-03-08T03:29:39;44.00;;;25.02;;
42244;SDS011;27912;51.828;5.688;2024-03-08T03:32:07;41.33;;;24.45;;
42244;SDS011;27912;51.828;5.688;2024-03-08T03:34:33;39.97;;;23.95;;
42244;SDS011;27912;51.828;5.688;2024-03-08T03:37:03;38.80;;;23.05;;
42244;SDS011;27912;51.828;5.688;2024-03-08T03:39:29;42.90;;;23.65;;
42244;SDS011;27912;51.828;5.688;2024-03-08T03:41:59;41.30;;;23.63;;
42244;SDS011;27912;51.828;5.688;2024-03-08T03:44:27;41.15;;;23.90;;
42244;SDS011;27912;51.828;5.688;2024-03-08T03:46:53;39.78;;;22.60;;
42244;SDS011;27912;51.828;5.688;2024-03-08T03:49:18;41.45;;;22.77;;
42244;SDS011;27912;51.828;5.688;2024-03-08T03:51:44;38.65;;;22.23;;
42244;SDS011;27912;51.828;5.688;2024-03-08T03:54:10;42.30;;;24.55;;
42244;SDS011;27912;51.828;5.688;2024-03-08T03:56:36;44.75;;;25.73;;
42244;SDS011;27912;51.828;5.688;2024-03-08T03:59:01;40.65;;;23.73;;
42244;SDS011;27912;51.828;5.688;2024-03-08T04:01:27;41.05;;;24.00;;
42244;SDS011;27912;51.828;5.688;2024-03-08T04:03:54;42.03;;;24.98;;
42244;SDS011;27912;51.828;5.688;2024-03-08T04:06:20;41.03;;;24.67;;
42244;SDS011;27912;51.828;5.688;2024-03-08T04:08:45;43.70;;;25.00;;
42244;SDS011;27912;51.828;5.688;2024-03-08T04:11:11;44.92;;;25.67;;
42244;SDS011;27912;51.828;5.688;2024-03-08T04:13:36;42.58;;;24.48;;
42244;SDS011;27912;51.828;5.688;2024-03-08T04:16:02;48.45;;;28.20;;
42244;SDS011;27912;51.828;5.688;2024-03-08T04:18:32;45.92;;;25.98;;
42244;SDS011;27912;51.828;5.688;2024-03-08T04:21:00;45.03;;;26.23;;
42244;SDS011;27912;51.828;5.688;2024-03-08T04:23:27;47.42;;;26.20;;
42244;SDS011;27912;51.828;5.688;2024-03-08T04:25:53;43.72;;;25.33;;
42244;SDS011;27912;51.828;5.688;2024-03-08T04:28:19;47.67;;;26.52;;
42244;SDS011;27912;51.828;5.688;2024-03-08T04:30:45;44.60;;;25.88;;
42244;SDS011;27912;51.828;5.688;2024-03-08T04:33:11;46.45;;;25.90;;
42244;SDS011;27912;51.828;5.688;2024-03-08T04:35:36;44.97;;;26.70;;
42244;SDS011;27912;51.828;5.688;2024-03-08T04:38:02;43.28;;;25.75;;
42244;SDS011;27912;51.828;5.688;2024-03-08T04:40:30;44.95;;;25.60;;
42244;SDS011;27912;51.828;5.688;2024-03-08T04:42:56;43.25;;;23.95;;
42244;SDS011;27912;51.828;5.688;2024-03-08T04:45:24;46.17;;;27.13;;
42244;SDS011;27912;51.828;5.688;2024-03-08T04:47:51;47.53;;;26.88;;
42244;SDS011;27912;51.828;5.688;2024-03-08T04:50:17;44.28;;;25.90;;
42244;SDS011;27912;51.828;5.688;2024-03-08T04:52:43;48.45;;;26.70;;
42244;SDS011;27912;51.828;5.688;2024-03-08T04:55:09;43.80;;;24.80;;
42244;SDS011;27912;51.828;5.688;2024-03-08T04:57:34;43.25;;;25.13;;
42244;SDS011;27912;51.828;5.688;2024-03-08T05:00:01;48.28;;;27.73;;
42244;SDS011;27912;51.828;5.688;2024-03-08T05:02:36;47.53;;;26.63;;
42244;SDS011;27912;51.828;5.688;2024-03-08T05:05:04;50.75;;;27.42;;
42244;SDS011;27912;51.828;5.688;2024-03-08T05:07:31;47.15;;;27.15;;
42244;SDS011;27912;51.828;5.688;2024-03-08T05:09:58;45.20;;;26.15;;
42244;SDS011;27912;51.828;5.688;2024-03-08T05:12:24;45.53;;;26.33;;
42244;SDS011;27912;51.828;5.688;2024-03-08T05:14:49;48.47;;;27.35;;
42244;SDS011;27912;51.828;5.688;2024-03-08T05:17:15;47.45;;;26.85;;
42244;SDS011;27912;51.828;5.688;2024-03-08T05:19:42;44.45;;;26.85;;
42244;SDS011;27912;51.828;5.688;2024-03-08T05:22:08;47.38;;;25.42;;
42244;SDS011;27912;51.828;5.688;2024-03-08T05:24:34;44.30;;;24.38;;
42244;SDS011;27912;51.828;5.688;2024-03-08T05:27:00;46.28;;;25.67;;
42244;SDS011;27912;51.828;5.688;2024-03-08T05:29:26;45.58;;;24.58;;
42244;SDS011;27912;51.828;5.688;2024-03-08T05:31:52;47.55;;;27.13;;
42244;SDS011;27912;51.828;5.688;2024-03-08T05:34:17;46.72;;;26.33;;
42244;SDS011;27912;51.828;5.688;2024-03-08T05:36:44;43.95;;;25.35;;
42244;SDS011;27912;51.828;5.688;2024-03-08T05:39:14;48.28;;;26.77;;
42244;SDS011;27912;51.828;5.688;2024-03-08T05:41:41;46.83;;;26.40;;
42244;SDS011;27912;51.828;5.688;2024-03-08T05:44:07;43.00;;;24.15;;
42244;SDS011;27912;51.828;5.688;2024-03-08T05:46:33;45.90;;;24.85;;
42244;SDS011;27912;51.828;5.688;2024-03-08T05:49:00;47.80;;;26.92;;
42244;SDS011;27912;51.828;5.688;2024-03-08T05:51:30;49.55;;;27.63;;
42244;SDS011;27912;51.828;5.688;2024-03-08T05:54:03;45.13;;;24.73;;
42244;SDS011;27912;51.828;5.688;2024-03-08T05:56:30;44.53;;;26.23;;
42244;SDS011;27912;51.828;5.688;2024-03-08T05:58:56;49.67;;;26.88;;
42244;SDS011;27912;51.828;5.688;2024-03-08T06:01:23;46.15;;;24.33;;
42244;SDS011;27912;51.828;5.688;2024-03-08T06:03:49;46.13;;;25.98;;
42244;SDS011;27912;51.828;5.688;2024-03-08T06:06:15;43.80;;;25.63;;
42244;SDS011;27912;51.828;5.688;2024-03-08T06:08:40;43.20;;;24.35;;
42244;SDS011;27912;51.828;5.688;2024-03-08T06:11:08;47.22;;;26.30;;
42244;SDS011;27912;51.828;5.688;2024-03-08T06:13:34;47.03;;;26.20;;
42244;SDS011;27912;51.828;5.688;2024-03-08T06:16:00;53.22;;;29.33;;
42244;SDS011;27912;51.828;5.688;2024-03-08T06:18:29;50.22;;;28.08;;
42244;SDS011;27912;51.828;5.688;2024-03-08T06:20:55;52.38;;;28.20;;
42244;SDS011;27912;51.828;5.688;2024-03-08T06:23:21;47.22;;;26.52;;
42244;SDS011;27912;51.828;5.688;2024-03-08T06:25:47;50.80;;;26.88;;
42244;SDS011;27912;51.828;5.688;2024-03-08T06:28:12;47.42;;;26.70;;
42244;SDS011;27912;51.828;5.688;2024-03-08T06:30:39;44.42;;;24.23;;
42244;SDS011;27912;51.828;5.688;2024-03-08T06:33:05;43.53;;;25.13;;
42244;SDS011;27912;51.828;5.688;2024-03-08T06:35:30;50.03;;;28.27;;
42244;SDS011;27912;51.828;5.688;2024-03-08T06:38:00;50.63;;;27.80;;
42244;SDS011;27912;51.828;5.688;2024-03-08T06:40:25;52.38;;;27.55;;
42244;SDS011;27912;51.828;5.688;2024-03-08T06:42:51;46.10;;;25.13;;
42244;SDS011;27912;51.828;5.688;2024-03-08T06:45:17;49.17;;;24.33;;
42244;SDS011;27912;51.828;5.688;2024-03-08T06:47:46;46.95;;;26.73;;
42244;SDS011;27912;51.828;5.688;2024-03-08T06:50:12;46.35;;;25.20;;
42244;SDS011;27912;51.828;5.688;2024-03-08T06:52:38;47.28;;;26.90;;
42244;SDS011;27912;51.828;5.688;2024-03-08T06:55:05;49.53;;;27.98;;
42244;SDS011;27912;51.828;5.688;2024-03-08T06:57:31;50.45;;;26.50;;
42244;SDS011;27912;51.828;5.688;2024-03-08T06:59:57;46.63;;;26.20;;
42244;SDS011;27912;51.828;5.688;2024-03-08T07:02:23;48.65;;;27.55;;
42244;SDS011;27912;51.828;5.688;2024-03-08T07:04:52;47.28;;;26.27;;
42244;SDS011;27912;51.828;5.688;2024-03-08T07:07:18;50.53;;;28.55;;
42244;SDS011;27912;51.828;5.688;2024-03-08T07:09:45;43.05;;;26.13;;
42244;SDS011;27912;51.828;5.688;2024-03-08T07:12:11;46.78;;;26.80;;
42244;SDS011;27912;51.828;5.688;2024-03-08T07:14:38;47.50;;;25.75;;
42244;SDS011;27912;51.828;5.688;2024-03-08T07:17:05;53.50;;;27.73;;
42244;SDS011;27912;51.828;5.688;2024-03-08T07:19:33;48.20;;;26.65;;
42244;SDS011;27912;51.828;5.688;2024-03-08T07:21:59;46.20;;;26.83;;
42244;SDS011;27912;51.828;5.688;2024-03-08T07:24:25;49.63;;;27.73;;
42244;SDS011;27912;51.828;5.688;2024-03-08T07:27:09;46.65;;;26.33;;
42244;SDS011;27912;51.828;5.688;2024-03-08T07:29:35;46.47;;;26.75;;
42244;SDS011;27912;51.828;5.688;2024-03-08T07:32:00;49.78;;;27.60;;
42244;SDS011;27912;51.828;5.688;2024-03-08T07:34:29;41.95;;;25.05;;
42244;SDS011;27912;51.828;5.688;2024-03-08T07:36:57;46.13;;;27.10;;
42244;SDS011;27912;51.828;5.688;2024-03-08T07:39:23;49.50;;;26.42;;
42244;SDS011;27912;51.828;5.688;2024-03-08T07:41:48;43.88;;;25.27;;
42244;SDS011;27912;51.828;5.688;2024-03-08T07:44:17;45.03;;;26.77;;
42244;SDS011;27912;51.828;5.688;2024-03-08T07:46:43;46.42;;;25.48;;
42244;SDS011;27912;51.828;5.688;2024-03-08T07:49:09;45.95;;;26.27;;
42244;SDS011;27912;51.828;5.688;2024-03-08T07:51:36;45.50;;;26.92;;
42244;SDS011;27912;51.828;5.688;2024-03-08T07:54:02;43.88;;;24.25;;
42244;SDS011;27912;51.828;5.688;2024-03-08T07:56:29;48.05;;;25.73;;
42244;SDS011;27912;51.828;5.688;2024-03-08T07:58:55;48.72;;;26.45;;
42244;SDS011;27912;51.828;5.688;2024-03-08T08:01:22;44.22;;;27.05;;
42244;SDS011;27912;51.828;5.688;2024-03-08T08:03:48;42.30;;;25.25;;
42244;SDS011;27912;51.828;5.688;2024-03-08T08:06:16;45.17;;;26.38;;
42244;SDS011;27912;51.828;5.688;2024-03-08T08:08:42;44.08;;;26.48;;
42244;SDS011;27912;51.828;5.688;2024-03-08T08:11:08;49.88;;;27.52;;
42244;SDS011;27912;51.828;5.688;2024-03-08T08:13:34;44.50;;;26.17;;
42244;SDS011;27912;51.828;5.688;2024-03-08T08:16:01;41.35;;;24.88;;
42244;SDS011;27912;51.828;5.688;2024-03-08T08:18:27;41.80;;;24.35;;
42244;SDS011;27912;51.828;5.688;2024-03-08T08:20:54;40.67;;;25.23;;
42244;SDS011;27912;51.828;5.688;2024-03-08T08:23:20;46.80;;;26.27;;
42244;SDS011;27912;51.828;5.688;2024-03-08T08:25:46;41.35;;;24.20;;
42244;SDS011;27912;51.828;5.688;2024-03-08T08:28:18;43.63;;;25.65;;
42244;SDS011;27912;51.828;5.688;2024-03-08T08:30:44;45.15;;;27.27;;
42244;SDS011;27912;51.828;5.688;2024-03-08T08:33:10;52.17;;;25.90;;
42244;SDS011;27912;51.828;5.688;2024-03-08T08:35:36;44.67;;;26.08;;
42244;SDS011;27912;51.828;5.688;2024-03-08T08:38:05;46.42;;;26.08;;
42244;SDS011;27912;51.828;5.688;2024-03-08T08:40:32;42.28;;;25.35;;
42244;SDS011;27912;51.828;5.688;2024-03-08T08:42:58;42.97;;;26.35;;
42244;SDS011;27912;51.828;5.688;2024-03-08T08:45:24;41.40;;;25.08;;
42244;SDS011;27912;51.828;5.688;2024-03-08T08:47:51;39.20;;;24.63;;
42244;SDS011;27912;51.828;5.688;2024-03-08T08:50:17;44.05;;;26.45;;
42244;SDS011;27912;51.828;5.688;2024-03-08T08:52:49;42.95;;;26.05;;
42244;SDS011;27912;51.828;5.688;2024-03-08T08:55:15;41.92;;;25.98;;
42244;SDS011;27912;51.828;5.688;2024-03-08T08:57:41;39.72;;;22.95;;
42244;SDS011;27912;51.828;5.688;2024-03-08T09:00:06;40.65;;;24.42;;
42244;SDS011;27912;51.828;5.688;2024-03-08T09:02:34;41.47;;;25.02;;
42244;SDS011;27912;51.828;5.688;2024-03-08T09:04:59;37.28;;;23.48;;
42244;SDS011;27912;51.828;5.688;2024-03-08T09:07:26;35.67;;;22.23;;
42244;SDS011;27912;51.828;5.688;2024-03-08T09:09:52;40.50;;;24.27;;
42244;SDS011;27912;51.828;5.688;2024-03-08T09:12:22;39.40;;;24.58;;
42244;SDS011;27912;51.828;5.688;2024-03-08T09:14:48;36.88;;;22.70;;
42244;SDS011;27912;51.828;5.688;2024-03-08T09:17:14;36.70;;;22.65;;
42244;SDS011;27912;51.828;5.688;2024-03-08T09:19:42;35.65;;;22.55;;
42244;SDS011;27912;51.828;5.688;2024-03-08T09:22:08;42.67;;;23.10;;
42244;SDS011;27912;51.828;5.688;2024-03-08T09:24:34;36.15;;;22.45;;
42244;SDS011;27912;51.828;5.688;2024-03-08T09:26:59;34.42;;;21.58;;
42244;SDS011;27912;51.828;5.688;2024-03-08T09:29:25;38.13;;;23.50;;
42244;SDS011;27912;51.828;5.688;2024-03-08T09:31:50;36.97;;;22.95;;
42244;SDS011;27912;51.828;5.688;2024-03-08T09:34:16;38.72;;;22.23;;
42244;SDS011;27912;51.828;5.688;2024-03-08T09:36:43;34.42;;;21.85;;
42244;SDS011;27912;51.828;5.688;2024-03-08T09:39:09;34.90;;;21.80;;
42244;SDS011;27912;51.828;5.688;2024-03-08T09:41:41;36.00;;;21.85;;
42244;SDS011;27912;51.828;5.688;2024-03-08T09:44:08;35.78;;;22.95;;
42244;SDS011;27912;51.828;5.688;2024-03-08T09:46:34;37.60;;;22.08;;
42244;SDS011;27912;51.828;5.688;2024-03-08T09:49:00;37.58;;;21.98;;
42244;SDS011;27912;51.828;5.688;2024-03-08T09:51:30;37.63;;;22.95;;
42244;SDS011;27912;51.828;5.688;2024-03-08T09:53:58;31.43;;;21.47;;
42244;SDS011;27912;51.828;5.688;2024-03-08T09:56:24;37.50;;;22.75;;
42244;SDS011;27912;51.828;5.688;2024-03-08T09:58:52;34.85;;;21.77;;
42244;SDS011;27912;51.828;5.688;2024-03-08T10:01:36;33.53;;;21.77;;
42244;SDS011;27912;51.828;5.688;2024-03-08T10:04:04;33.88;;;20.65;;
42244;SDS011;27912;51.828;5.688;2024-03-08T10:06:30;30.08;;;20.30;;
42244;SDS011;27912;51.828;5.688;2024-03-08T10:08:56;28.75;;;19.50;;
42244;SDS011;27912;51.828;5.688;2024-03-08T10:11:22;32.35;;;20.70;;
42244;SDS011;27912;51.828;5.688;2024-03-08T10:13:49;34.65;;;21.25;;
42244;SDS011;27912;51.828;5.688;2024-03-08T10:16:16;35.22;;;22.23;;
42244;SDS011;27912;51.828;5.688;2024-03-08T10:18:44;32.40;;;22.02;;
42244;SDS011;27912;51.828;5.688;2024-03-08T10:21:10;33.88;;;21.30;;
42244;SDS011;27912;51.828;5.688;2024-03-08T10:23:36;32.70;;;20.40;;
42244;SDS011;27912;51.828;5.688;2024-03-08T10:26:09;31.90;;;20.08;;
42244;SDS011;27912;51.828;5.688;2024-03-08T10:28:36;31.15;;;19.48;;
42244;SDS011;27912;51.828;5.688;2024-03-08T10:31:02;32.80;;;18.60;;
42244;SDS011;27912;51.828;5.688;2024-03-08T10:33:27;32.45;;;19.48;;
42244;SDS011;27912;51.828;5.688;2024-03-08T10:35:53;30.50;;;19.08;;
42244;SDS011;27912;51.828;5.688;2024-03-08T10:38:20;30.63;;;19.73;;
42244;SDS011;27912;51.828;5.688;2024-03-08T10:40:49;28.65;;;18.83;;
42244;SDS011;27912;51.828;5.688;2024-03-08T10:43:24;32.35;;;20.38;;
42244;SDS011;27912;51.828;5.688;2024-03-08T10:45:52;30.58;;;19.83;;
42244;SDS011;27912;51.828;5.688;2024-03-08T10:48:31;31.67;;;19.60;;
42244;SDS011;27912;51.828;5.688;2024-03-08T10:50:57;30.85;;;19.80;;
42244;SDS011;27912;51.828;5.688;2024-03-08T10:53:36;31.60;;;20.10;;
42244;SDS011;27912;51.828;5.688;2024-03-08T10:56:04;31.40;;;20.15;;
42244;SDS011;27912;51.828;5.688;2024-03-08T10:58:30;29.48;;;19.38;;
42244;SDS011;27912;51.828;5.688;2024-03-08T11:00:57;27.58;;;17.38;;
42244;SDS011;27912;51.828;5.688;2024-03-08T11:09:32;29.33;;;19.88;;
42244;SDS011;27912;51.828;5.688;2024-03-08T11:14:45;31.05;;;17.75;;
42244;SDS011;27912;51.828;5.688;2024-03-08T11:17:15;26.63;;;18.10;;
42244;SDS011;27912;51.828;5.688;2024-03-08T11:20:03;25.85;;;17.00;;
42244;SDS011;27912;51.828;5.688;2024-03-08T11:25:39;26.30;;;16.80;;
42244;SDS011;27912;51.828;5.688;2024-03-08T11:28:21;29.80;;;16.33;;
42244;SDS011;27912;51.828;5.688;2024-03-08T11:33:24;29.02;;;17.23;;
42244;SDS011;27912;51.828;5.688;2024-03-08T11:36:03;23.92;;;15.32;;
42244;SDS011;27912;51.828;5.688;2024-03-08T11:38:41;26.90;;;16.97;;
42244;SDS011;27912;51.828;5.688;2024-03-08T11:41:13;25.20;;;17.30;;
42244;SDS011;27912;51.828;5.688;2024-03-08T11:43:40;27.88;;;16.60;;
42244;SDS011;27912;51.828;5.688;2024-03-08T11:46:12;27.55;;;17.95;;
42244;SDS011;27912;51.828;5.688;2024-03-08T11:48:42;25.00;;;15.85;;
42244;SDS011;27912;51.828;5.688;2024-03-08T11:51:12;23.67;;;14.93;;
42244;SDS011;27912;51.828;5.688;2024-03-08T11:53:40;26.75;;;16.38;;
42244;SDS011;27912;51.828;5.688;2024-03-08T11:56:10;27.50;;;16.75;;
42244;SDS011;27912;51.828;5.688;2024-03-08T11:58:37;24.77;;;15.95;;
42244;SDS011;27912;51.828;5.688;2024-03-08T12:01:06;25.52;;;16.50;;
42244;SDS011;27912;51.828;5.688;2024-03-08T12:03:34;29.98;;;16.73;;
42244;SDS011;27912;51.828;5.688;2024-03-08T12:06:00;20.85;;;14.07;;
42244;SDS011;27912;51.828;5.688;2024-03-08T12:08:27;26.48;;;14.60;;
42244;SDS011;27912;51.828;5.688;2024-03-08T12:10:56;21.70;;;14.90;;
42244;SDS011;27912;51.828;5.688;2024-03-08T12:13:25;22.17;;;15.02;;
42244;SDS011;27912;51.828;5.688;2024-03-08T12:15:55;22.75;;;15.02;;
42244;SDS011;27912;51.828;5.688;2024-03-08T12:18:22;22.10;;;14.77;;
42244;SDS011;27912;51.828;5.688;2024-03-08T12:20:47;22.30;;;14.45;;
42244;SDS011;27912;51.828;5.688;2024-03-08T12:23:15;23.77;;;14.98;;
42244;SDS011;27912;51.828;5.688;2024-03-08T12:25:41;24.30;;;14.93;;
42244;SDS011;27912;51.828;5.688;2024-03-08T12:28:07;26.33;;;15.52;;
42244;SDS011;27912;51.828;5.688;2024-03-08T12:30:47;24.70;;;15.63;;
42244;SDS011;27912;51.828;5.688;2024-03-08T12:33:19;23.00;;;15.40;;
42244;SDS011;27912;51.828;5.688;2024-03-08T12:35:51;24.58;;;16.17;;
42244;SDS011;27912;51.828;5.688;2024-03-08T12:38:23;26.83;;;16.55;;
42244;SDS011;27912;51.828;5.688;2024-03-08T12:40:56;21.92;;;14.23;;
42244;SDS011;27912;51.828;5.688;2024-03-08T12:43:23;25.73;;;16.17;;
42244;SDS011;27912;51.828;5.688;2024-03-08T12:45:49;21.63;;;15.05;;
42244;SDS011;27912;51.828;5.688;2024-03-08T12:48:16;20.38;;;14.07;;
42244;SDS011;27912;51.828;5.688;2024-03-08T12:50:42;22.02;;;14.98;;
42244;SDS011;27912;51.828;5.688;2024-03-08T12:53:12;23.30;;;14.43;;
42244;SDS011;27912;51.828;5.688;2024-03-08T12:55:39;22.05;;;14.35;;
42244;SDS011;27912;51.828;5.688;2024-03-08T12:58:05;21.95;;;13.38;;
42244;SDS011;27912;51.828;5.688;2024-03-08T13:00:32;22.80;;;14.25;;
42244;SDS011;27912;51.828;5.688;2024-03-08T13:03:01;23.60;;;15.57;;
42244;SDS011;27912;51.828;5.688;2024-03-08T13:05:27;22.58;;;14.65;;
42244;SDS011;27912;51.828;5.688;2024-03-08T13:07:53;23.42;;;15.77;;
42244;SDS011;27912;51.828;5.688;2024-03-08T13:10:19;27.55;;;16.15;;
42244;SDS011;27912;51.828;5.688;2024-03-08T13:12:45;26.40;;;14.85;;
42244;SDS011;27912;51.828;5.688;2024-03-08T13:15:12;22.55;;;14.63;;
42244;SDS011;27912;51.828;5.688;2024-03-08T13:17:45;23.10;;;15.38;;
42244;SDS011;27912;51.828;5.688;2024-03-08T13:20:12;23.88;;;15.48;;
42244;SDS011;27912;51.828;5.688;2024-03-08T13:22:43;22.50;;;15.85;;
42244;SDS011;27912;51.828;5.688;2024-03-08T13:25:08;23.70;;;15.93;;
42244;SDS011;27912;51.828;5.688;2024-03-08T13:27:38;26.05;;;17.67;;
42244;SDS011;27912;51.828;5.688;2024-03-08T13:30:08;23.67;;;17.00;;
42244;SDS011;27912;51.828;5.688;2024-03-08T13:32:39;22.50;;;15.73;;
42244;SDS011;27912;51.828;5.688;2024-03-08T13:35:05;24.25;;;16.20;;
42244;SDS011;27912;51.828;5.688;2024-03-08T13:37:37;27.15;;;16.25;;
42244;SDS011;27912;51.828;5.688;2024-03-08T13:40:07;24.85;;;15.40;;
42244;SDS011;27912;51.828;5.688;2024-03-08T13:42:37;24.60;;;15.20;;
42244;SDS011;27912;51.828;5.688;2024-03-08T13:45:03;23.40;;;15.70;;
42244;SDS011;27912;51.828;5.688;2024-03-08T13:47:32;23.70;;;15.52;;
42244;SDS011;27912;51.828;5.688;2024-03-08T13:49:59;24.42;;;16.00;;
42244;SDS011;27912;51.828;5.688;2024-03-08T13:52:25;26.00;;;15.70;;
42244;SDS011;27912;51.828;5.688;2024-03-08T13:54:54;27.38;;;16.63;;
42244;SDS011;27912;51.828;5.688;2024-03-08T13:57:20;23.98;;;14.38;;
42244;SDS011;27912;51.828;5.688;2024-03-08T13:59:47;21.98;;;15.65;;
42244;SDS011;27912;51.828;5.688;2024-03-08T14:02:15;24.88;;;16.65;;
42244;SDS011;27912;51.828;5.688;2024-03-08T14:04:42;24.33;;;15.82;;
42244;SDS011;27912;51.828;5.688;2024-03-08T14:07:08;23.75;;;15.93;;
42244;SDS011;27912;51.828;5.688;2024-03-08T14:09:34;26.98;;;16.98;;
42244;SDS011;27912;51.828;5.688;2024-03-08T14:12:02;27.30;;;17.85;;
42244;SDS011;27912;51.828;5.688;2024-03-08T14:14:32;28.60;;;17.75;;
42244;SDS011;27912;51.828;5.688;2024-03-08T14:17:00;24.73;;;17.65;;
42244;SDS011;27912;51.828;5.688;2024-03-08T14:19:26;25.98;;;16.60;;
42244;SDS011;27912;51.828;5.688;2024-03-08T14:21:52;29.23;;;17.40;;
42244;SDS011;27912;51.828;5.688;2024-03-08T14:24:18;26.80;;;17.55;;
42244;SDS011;27912;51.828;5.688;2024-03-08T14:26:44;29.45;;;18.38;;
42244;SDS011;27912;51.828;5.688;2024-03-08T14:29:10;22.52;;;16.23;;
42244;SDS011;27912;51.828;5.688;2024-03-08T14:31:36;25.92;;;16.90;;
42244;SDS011;27912;51.828;5.688;2024-03-08T14:34:02;26.23;;;17.50;;
42244;SDS011;27912;51.828;5.688;2024-03-08T14:36:28;24.00;;;15.73;;
42244;SDS011;27912;51.828;5.688;2024-03-08T14:38:54;23.65;;;15.45;;